New Bedford, MA

4:07 PM EDT on April 25, 2017 (GMT -0400)
New Bedford Regional

Weather History for KEWB - October, 2011

Change the Weather History Date:

Friday, October 14, 2011

  Actual Average Record
Temperature  
Mean Temperature 66 °F -  
Max Temperature 72 °F 64 °F 78 °F (1975)
Min Temperature 60 °F 49 °F 28 °F (2006)
Cooling Degree Days 1    
Growing Degree Days 16 (Base 50)    
Moisture  
Dew Point 64 °F    
Average Humidity 95    
Maximum Humidity 100    
Minimum Humidity 83    
Precipitation  
Precipitation 0.80 in - - ()
Sea Level Pressure  
Sea Level Pressure 29.56 in    
Wind  
Wind Speed 7 mph (SE)    
Max Wind Speed 17 mph    
Max Gust Speed 24 mph    
Visibility 4 miles    
Events Fog , Rain , Thunderstorm    
Averages and records for this station are not official NWS values.
T = Trace of Precipitation, MM = Missing Value Source: NWS Daily Summary

Daily Weather History Graph

Daily Weather History Graph

Search for Another Location

Airport or City:

Trip Planner

Search our weather history database for the weather conditions in past years. The results will help you decide how hot, cold, wet, or windy it might be!

Date:

Astronomy

Oct. 14, 2011 Rise Set
Actual Time 6:54 AM EDT 6:04 PM EDT
Civil Twilight 6:26 AM EDT 6:32 PM EDT
Nautical Twilight 5:54 AM EDT 7:04 PM EDT
Astronomical Twilight 5:22 AM EDT 7:36 PM EDT
Moon 7:13 PM EDT (10/14) 9:23 AM EDT (10/14)
Length of Visible Light 12h 05m
Length of Day
11h 10m
Waning Gibbous, 94% of the Moon is Illuminated
Oct 14
Waning Gibbous
Oct 19
Last Quarter
Oct 26
New
Nov 2
First Quarter
Nov 10
Full

Hourly Weather History & Observations

Time (EDT) Temp. Dew Point Humidity Pressure Visibility Wind Dir Wind Speed Gust Speed Precip Events Conditions
12:21 AM 60.8 °F 60.8 °F 100% 29.78 in 4.0 mi East 3.5 mph - N/A   Overcast
12:34 AM 60.8 °F 60.8 °F 100% 29.78 in 2.0 mi East 3.5 mph - 0.01 in   Overcast
12:53 AM 61.0 °F 60.1 °F 97% 29.77 in 4.0 mi NNE 6.9 mph - 0.01 in   Overcast
1:53 AM 61.0 °F 60.1 °F 97% 29.75 in 4.0 mi Calm Calm - N/A   Overcast
2:18 AM 60.8 °F 60.8 °F 100% 29.75 in 2.5 mi East 3.5 mph - N/A   Overcast
2:39 AM 60.8 °F 60.8 °F 100% 29.74 in 1.2 mi ENE 3.5 mph - N/A   Overcast
2:53 AM 61.0 °F 60.1 °F 97% 29.74 in 0.8 mi NE 3.5 mph - N/A   Overcast
3:53 AM 61.0 °F 60.1 °F 97% 29.73 in 0.8 mi ENE 4.6 mph - N/A   Overcast
4:30 AM 60.8 °F 60.8 °F 100% 29.72 in 1.0 mi ENE 3.5 mph - N/A   Overcast
4:53 AM 61.0 °F 60.1 °F 97% 29.72 in 1.0 mi ENE 3.5 mph - N/A   Overcast
5:45 AM 62.6 °F 60.8 °F 94% 29.72 in 0.8 mi Calm Calm - N/A   Overcast
5:53 AM 62.1 °F 61.0 °F 96% 29.72 in 0.5 mi Calm Calm - N/A Fog Fog
6:17 AM 62.6 °F 60.8 °F 94% 29.71 in 0.2 mi NE 3.5 mph - N/A Fog Fog
6:24 AM 62.6 °F 60.8 °F 94% 29.71 in 0.2 mi NE 3.5 mph - N/A Fog Fog
6:45 AM 62.6 °F 60.8 °F 94% 29.70 in 0.2 mi East 3.5 mph - N/A Fog Fog
6:53 AM 63.0 °F 62.1 °F 97% 29.70 in 0.2 mi East 4.6 mph - 0.01 in Fog , Rain Light Rain
7:20 AM 64.4 °F 62.6 °F 94% 29.69 in 1.5 mi ESE 5.8 mph - N/A   Overcast
7:39 AM 64.4 °F 64.4 °F 100% 29.69 in 1.5 mi ESE 5.8 mph - 0.03 in   Overcast
7:53 AM 64.9 °F 64.0 °F 97% 29.70 in 1.5 mi ESE 5.8 mph - 0.03 in   Overcast
8:00 AM 64.4 °F 64.4 °F 100% 29.69 in 4.0 mi ESE 4.6 mph - N/A   Overcast
8:27 AM 66.2 °F 66.2 °F 100% 29.69 in 2.0 mi SE 8.1 mph - N/A   Overcast
8:32 AM 66.2 °F 66.2 °F 100% 29.68 in 1.8 mi SE 8.1 mph - N/A   Overcast
8:41 AM 66.2 °F 66.2 °F 100% 29.68 in 0.5 mi SE 6.9 mph - N/A Fog Overcast
8:53 AM 66.2 °F 66.2 °F 100% 29.68 in 0.5 mi SE 8.1 mph - N/A Fog Overcast
8:56 AM 66.2 °F 66.2 °F 100% 29.68 in 0.2 mi SE 8.1 mph - N/A Fog Mist
9:23 AM 66.2 °F 66.2 °F 100% 29.66 in 0.5 mi ESE 9.2 mph - N/A Fog Fog
9:37 AM 66.2 °F 66.2 °F 100% 29.65 in 0.5 mi ESE 9.2 mph - N/A Fog Fog
9:53 AM 68.0 °F 66.9 °F 96% 29.65 in 0.5 mi SE 10.4 mph - N/A Fog Fog
10:12 AM 69.8 °F 68.0 °F 94% 29.63 in 2.0 mi ESE 10.4 mph - N/A   Overcast
10:19 AM 69.8 °F 68.0 °F 94% 29.62 in 9.0 mi ESE 9.2 mph - N/A   Overcast
10:27 AM 69.8 °F 68.0 °F 94% 29.62 in 10.0 mi ESE 8.1 mph - N/A   Overcast
10:40 AM 69.8 °F 68.0 °F 94% 29.62 in 10.0 mi SE 10.4 mph - N/A   Overcast
10:53 AM 70.0 °F 68.0 °F 93% 29.62 in 10.0 mi SE 8.1 mph - N/A   Overcast
11:08 AM 69.8 °F 66.2 °F 88% 29.62 in 10.0 mi SE 10.4 mph - N/A   Overcast
11:30 AM 71.6 °F 68.0 °F 88% 29.60 in 10.0 mi ESE 6.9 mph - N/A   Overcast
11:46 AM 71.6 °F 68.0 °F 88% 29.60 in 10.0 mi SE 10.4 mph - N/A   Overcast
11:53 AM 72.0 °F 68.0 °F 87% 29.59 in 10.0 mi SE 11.5 mph - N/A   Overcast
12:19 PM 71.6 °F 66.2 °F 83% 29.58 in 10.0 mi ESE 11.5 mph - N/A   Overcast
12:50 PM 71.6 °F 66.2 °F 83% 29.56 in 10.0 mi SE 13.8 mph - N/A   Overcast
12:53 PM 70.0 °F 66.9 °F 90% 29.56 in 10.0 mi SE 11.5 mph - N/A   Overcast
1:03 PM 69.8 °F 66.2 °F 88% 29.56 in 10.0 mi SE 11.5 mph - N/A   Overcast
1:53 PM 69.1 °F 66.9 °F 93% 29.53 in 10.0 mi SE 15.0 mph - 0.01 in   Overcast
2:53 PM 69.1 °F 66.9 °F 93% 29.47 in 6.0 mi SE 10.4 mph - 0.01 in Rain Light Rain
3:45 PM 69.8 °F 66.2 °F 88% 29.46 in 10.0 mi SSE 12.7 mph 18.4 mph 0.01 in   Overcast
3:53 PM 68.0 °F 66.9 °F 96% 29.47 in 10.0 mi SSE 12.7 mph - 0.01 in   Overcast
4:09 PM 66.2 °F 66.2 °F 100% 29.46 in 1.8 mi SE 10.4 mph - 0.04 in Rain Heavy Rain
4:29 PM 68.0 °F 66.2 °F 94% 29.44 in 1.8 mi South 11.5 mph 18.4 mph 0.24 in Rain Rain
4:53 PM 68.0 °F 66.0 °F 93% 29.43 in 1.8 mi SSE 5.8 mph 16.1 mph 0.47 in Rain Heavy Rain
5:00 PM 68.0 °F 66.2 °F 94% 29.42 in 2.0 mi South 11.5 mph - 0.01 in Rain Rain
5:09 PM 68.0 °F 66.2 °F 94% 29.42 in 3.0 mi SSE 11.5 mph 18.4 mph 0.01 in Rain Light Rain
5:24 PM 66.2 °F 64.4 °F 94% 29.42 in 3.0 mi SSE 10.4 mph 20.7 mph 0.01 in Rain Light Rain
5:53 PM 66.9 °F 66.0 °F 97% 29.41 in 6.0 mi South 6.9 mph - 0.01 in   Overcast
6:44 PM 66.2 °F 64.4 °F 94% 29.39 in 2.5 mi South 10.4 mph - N/A   Overcast
6:51 PM 66.2 °F 64.4 °F 94% 29.39 in 0.8 mi South 6.9 mph - N/A   Overcast
6:52 PM 66.0 °F 64.9 °F 96% 29.39 in 0.8 mi South 6.9 mph - N/A   Overcast
6:59 PM 66.2 °F 64.4 °F 94% 29.39 in 1.0 mi South 5.8 mph - N/A   Overcast
7:53 PM 66.0 °F 64.0 °F 93% 29.38 in 1.0 mi SW 12.7 mph 19.6 mph 0.09 in Rain Rain
7:59 PM 64.4 °F 64.4 °F 100% 29.38 in 3.0 mi SW 8.1 mph 19.6 mph 0.00 in Rain Light Rain
8:08 PM 64.4 °F 64.4 °F 100% 29.38 in 10.0 mi WSW 5.8 mph - 0.00 in Rain Light Rain
8:15 PM 64.4 °F 64.4 °F 100% 29.38 in 10.0 mi WSW 8.1 mph - 0.00 in   Overcast
8:53 PM 63.0 °F 60.1 °F 90% 29.38 in 2.5 mi WSW 13.8 mph 24.2 mph 0.08 in Rain , Thunderstorm Thunderstorms and Rain
9:01 PM 62.6 °F 60.8 °F 94% 29.38 in 4.0 mi SW 9.2 mph - 0.01 in Rain , Thunderstorm Thunderstorms and Rain
9:17 PM 62.6 °F 60.8 °F 94% 29.39 in 5.0 mi SSW 10.4 mph - 0.03 in Rain , Thunderstorm Thunderstorms and Rain
9:25 PM 62.6 °F 60.8 °F 94% 29.38 in 3.0 mi WSW 11.5 mph - 0.06 in Rain Rain
9:32 PM 62.6 °F 60.8 °F 94% 29.38 in 4.0 mi SW 8.1 mph - 0.06 in Rain Light Rain
9:53 PM 63.0 °F 61.0 °F 93% 29.38 in 10.0 mi SW 10.4 mph - 0.06 in   Overcast
10:11 PM 64.4 °F 60.8 °F 88% 29.37 in 8.0 mi SSW 9.2 mph - N/A   Overcast
10:49 PM 64.4 °F 60.8 °F 88% 29.37 in 8.0 mi SW 13.8 mph 21.9 mph 0.01 in   Overcast
10:53 PM 64.0 °F 61.0 °F 90% 29.38 in 8.0 mi SW 13.8 mph 21.9 mph 0.01 in   Mostly Cloudy
11:03 PM 62.6 °F 60.8 °F 94% 29.38 in 9.0 mi SW 11.5 mph 20.7 mph N/A   Scattered Clouds
11:34 PM 62.6 °F 59.0 °F 88% 29.38 in 10.0 mi SW 11.5 mph 21.9 mph N/A   Mostly Cloudy
11:53 PM 62.1 °F 59.0 °F 90% 29.39 in 10.0 mi WSW 17.3 mph 23.0 mph N/A   Mostly Cloudy